NCAR-RAP Real-Time Weather Data

Output produced by METARs form (30 April 2017  15:08 UTC)
found at http://weather.rap.ucar.edu/surface/
 
Conditions at: KGNV observed 30 April 2017  14:53 UTC
Temperature: 27.8°C (82°F)
Dewpoint: 20.0°C (68°F) [RH = 63%]
Pressure (altimeter): 30.12 inches Hg (1020.1 mb)
[Sea-level pressure: 1019.8 mb]
Winds: from the SSE (150 degrees) at 13 MPH (11 knots; 5.7 m/s)
gusting to 28 MPH (24 knots; 12.5 m/s)
Visibility: 10 or more miles (16+ km)
Ceiling: at least 12,000 feet AGL
Clouds: few clouds at 2700 feet AGL
Present Weather: no significant weather observed at this time
KGNV 301453Z 15011G24KT 10SM FEW027 28/20 A3012 RMK AO2 SLP198 T02780200 53006

Conditions at: KGNV observed 30 April 2017  13:53 UTC
Temperature: 26.1°C (79°F)
Dewpoint: 20.6°C (69°F) [RH = 72%]
Pressure (altimeter): 30.11 inches Hg (1019.7 mb)
[Sea-level pressure: 1019.2 mb]
Winds: from the SE (140 degrees) at 16 MPH (14 knots; 7.3 m/s)
Visibility: 10 or more miles (16+ km)
Ceiling: at least 12,000 feet AGL
Clouds: scattered clouds at 1800 feet AGL
Present Weather: no significant weather observed at this time
KGNV 301353Z 14014KT 10SM SCT018 26/21 A3011 RMK AO2 SLP192 T02610206

Conditions at: KGNV observed 30 April 2017  13:12 UTC
Temperature: 25.0°C (77°F)
Dewpoint: 20.6°C (69°F) [RH = 77%]
Pressure (altimeter): 30.11 inches Hg (1019.7 mb)
Winds: from the SE (140 degrees) at 13 MPH (11 knots; 5.7 m/s)
Visibility: 10 or more miles (16+ km)
Ceiling: at least 12,000 feet AGL
Clouds: scattered clouds at 1600 feet AGL
Present Weather: no significant weather observed at this time
KGNV 301312Z 14011KT 10SM SCT016 25/21 A3011 RMK AO2 T02500206

Conditions at: KGNV observed 30 April 2017  13:00 UTC
Temperature: 25.0°C (77°F)
Dewpoint: 21.1°C (70°F) [RH = 79%]
Pressure (altimeter): 30.11 inches Hg (1019.7 mb)
Winds: from the SE (140 degrees) at 15 MPH (13 knots; 6.8 m/s)
gusting to 24 MPH (21 knots; 10.9 m/s)
Visibility: 10 or more miles (16+ km)
Ceiling: 1500 feet AGL
Clouds: broken clouds at 1500 feet AGL
Present Weather: no significant weather observed at this time
KGNV 301300Z 14013G21KT 10SM BKN015 25/21 A3011 RMK AO2 T02500211

Conditions at: KGNV observed 30 April 2017  12:53 UTC
Temperature: 24.4°C (76°F)
Dewpoint: 20.6°C (69°F) [RH = 79%]
Pressure (altimeter): 30.11 inches Hg (1019.7 mb)
[Sea-level pressure: 1019.2 mb]
Winds: from the SE (140 degrees) at 17 MPH (15 knots; 7.8 m/s)
gusting to 24 MPH (21 knots; 10.9 m/s)
Visibility: 10 or more miles (16+ km)
Ceiling: 1300 feet AGL
Clouds: broken clouds at 1300 feet AGL
Present Weather: no significant weather observed at this time
KGNV 301253Z 14015G21KT 10SM BKN013 24/21 A3011 RMK AO2 SLP192 T02440206

Conditions at: KGNV observed 30 April 2017  12:01 UTC
Temperature: 22.2°C (72°F)
Dewpoint: 21.1°C (70°F) [RH = 93%]
Pressure (altimeter): 30.11 inches Hg (1019.7 mb)
Winds: from the SE (130 degrees) at 12 MPH (10 knots; 5.2 m/s)
Visibility: 10 or more miles (16+ km)
Ceiling: at least 12,000 feet AGL
Clouds: few clouds at 900 feet AGL
Present Weather: no significant weather observed at this time
KGNV 301201Z 13010KT 10SM FEW009 22/21 A3011 RMK AO2 T02220211

Conditions at: KGNV observed 30 April 2017  11:53 UTC
Temperature: 22.2°C (72°F)
Dewpoint: 21.1°C (70°F) [RH = 93%]
Pressure (altimeter): 30.10 inches Hg (1019.4 mb)
[Sea-level pressure: 1019.1 mb]
Winds: from the SE (130 degrees) at 12 MPH (10 knots; 5.2 m/s)
Visibility: 10 or more miles (16+ km)
Ceiling: at least 12,000 feet AGL
Clouds: sky clear below 12,000 feet AGL
Present Weather: no significant weather observed at this time
KGNV 301153Z 13010KT 10SM CLR 22/21 A3010 RMK AO2 SLP191 T02220211 10228 20206 57003

Conditions at: KGNV observed 30 April 2017  11:37 UTC
Temperature: 21.7°C (71°F)
Dewpoint: 21.1°C (70°F) [RH = 96%]
Pressure (altimeter): 30.11 inches Hg (1019.7 mb)
Winds: from the SE (130 degrees) at 13 MPH (11 knots; 5.7 m/s)
Visibility: 10 or more miles (16+ km)
Ceiling: at least 12,000 feet AGL
Clouds: few clouds at 2000 feet AGL
Present Weather: no significant weather observed at this time
KGNV 301137Z 13011KT 10SM FEW020 22/21 A3011 RMK AO2 T02170211

Conditions at: KGNV observed 30 April 2017  11:12 UTC
Temperature: 21.1°C (70°F)
Dewpoint: 20.6°C (69°F) [RH = 97%]
Pressure (altimeter): 30.11 inches Hg (1019.7 mb)
Winds: from the ESE (120 degrees) at 7 MPH (6 knots; 3.1 m/s)
Visibility: 9 miles (14 km)
Ceiling: 1900 feet AGL
Clouds: few clouds at 600 feet AGL
broken clouds at 1900 feet AGL
Present Weather: no significant weather observed at this time
KGNV 301112Z 12006KT 9SM FEW006 BKN019 21/21 A3011 RMK AO2 T02110206

Conditions at: KGNV observed 30 April 2017  10:53 UTC
Temperature: 20.6°C (69°F)
Dewpoint: 20.0°C (68°F) [RH = 96%]
Pressure (altimeter): 30.11 inches Hg (1019.7 mb)
[Sea-level pressure: 1019.2 mb]
Winds: from the ESE (110 degrees) at 7 MPH (6 knots; 3.1 m/s)
Visibility: 10 or more miles (16+ km)
Ceiling: at least 12,000 feet AGL
Clouds: few clouds at 800 feet AGL
few clouds at 2300 feet AGL
Present Weather: no significant weather observed at this time
KGNV 301053Z 11006KT 10SM FEW008 FEW023 21/20 A3011 RMK AO2 SLP192 T02060200

Conditions at: KGNV observed 30 April 2017  10:15 UTC
Temperature: 21.1°C (70°F)
Dewpoint: 20.0°C (68°F) [RH = 93%]
Pressure (altimeter): 30.11 inches Hg (1019.7 mb)
Winds: from the E (100 degrees) at 3 MPH (3 knots; 1.6 m/s)
Visibility: 10 or more miles (16+ km)
Ceiling: at least 12,000 feet AGL
Clouds: few clouds at 900 feet AGL
scattered clouds at 1900 feet AGL
Present Weather: no significant weather observed at this time
KGNV 301015Z 10003KT 10SM FEW009 SCT019 21/20 A3011 RMK AO2 T02110200

Conditions at: KGNV observed 30 April 2017  10:01 UTC
Temperature: 20.6°C (69°F)
Dewpoint: 20.0°C (68°F) [RH = 96%]
Pressure (altimeter): 30.11 inches Hg (1019.7 mb)
Winds: calm
Visibility: 10 or more miles (16+ km)
Ceiling: 1900 feet AGL
Clouds: few clouds at 1200 feet AGL
broken clouds at 1900 feet AGL
Present Weather: automated observation with no human augmentation;
there may or may not be significant weather present at this time
KGNV 301001Z AUTO 00000KT 10SM FEW012 BKN019 21/20 A3011 RMK AO2 T02060200

Conditions at: KGNV observed 30 April 2017  09:53 UTC
Temperature: 20.6°C (69°F)
Dewpoint: 20.0°C (68°F) [RH = 96%]
Pressure (altimeter): 30.11 inches Hg (1019.7 mb)
[Sea-level pressure: 1019.4 mb]
Winds: from the ESE (120 degrees) at 3 MPH (3 knots; 1.6 m/s)
Visibility: 10 or more miles (16+ km)
Ceiling: 1200 feet AGL
Clouds: broken clouds at 1200 feet AGL
broken clouds at 2000 feet AGL
Present Weather: automated observation with no human augmentation;
there may or may not be significant weather present at this time
KGNV 300953Z AUTO 12003KT 10SM BKN012 BKN020 21/20 A3011 RMK AO2 SLP194 T02060200

Conditions at: KGNV observed 30 April 2017  08:53 UTC
Temperature: 21.7°C (71°F)
Dewpoint: 20.0°C (68°F) [RH = 90%]
Pressure (altimeter): 30.12 inches Hg (1020.1 mb)
[Sea-level pressure: 1019.5 mb]
Winds: from the E (80 degrees) at 3 MPH (3 knots; 1.6 m/s)
Visibility: 10 or more miles (16+ km)
Ceiling: 1200 feet AGL
Clouds: overcast cloud deck at 1200 feet AGL
Present Weather: automated observation with no human augmentation;
there may or may not be significant weather present at this time
KGNV 300853Z AUTO 08003KT 10SM OVC012 22/20 A3012 RMK AO2 SLP195 T02170200 55000

Conditions at: KGNV observed 30 April 2017  08:38 UTC
Temperature: 21.7°C (71°F)
Dewpoint: 20.0°C (68°F) [RH = 90%]
Pressure (altimeter): 30.11 inches Hg (1019.7 mb)
Winds: from the E (80 degrees) at 3 MPH (3 knots; 1.6 m/s)
Visibility: 10 or more miles (16+ km)
Ceiling: 1300 feet AGL
Clouds: overcast cloud deck at 1300 feet AGL
Present Weather: automated observation with no human augmentation;
there may or may not be significant weather present at this time
KGNV 300838Z AUTO 08003KT 10SM OVC013 22/20 A3011 RMK AO2 T02170200

Conditions at: KGNV observed 30 April 2017  07:53 UTC
Temperature: 21.7°C (71°F)
Dewpoint: 20.0°C (68°F) [RH = 90%]
Pressure (altimeter): 30.11 inches Hg (1019.7 mb)
[Sea-level pressure: 1019.2 mb]
Winds: from the E (100 degrees) at 7 MPH (6 knots; 3.1 m/s)
Visibility: 10 or more miles (16+ km)
Ceiling: 2200 feet AGL
Clouds: scattered clouds at 1500 feet AGL
broken clouds at 2200 feet AGL
Present Weather: automated observation with no human augmentation;
there may or may not be significant weather present at this time
KGNV 300753Z AUTO 10006KT 10SM SCT015 BKN022 22/20 A3011 RMK AO2 SLP192 T02170200

Conditions at: KGNV observed 30 April 2017  07:39 UTC
Temperature: 22.2°C (72°F)
Dewpoint: 20.0°C (68°F) [RH = 87%]
Pressure (altimeter): 30.11 inches Hg (1019.7 mb)
Winds: from the ESE (110 degrees) at 7 MPH (6 knots; 3.1 m/s)
Visibility: 10 or more miles (16+ km)
Ceiling: 1600 feet AGL
Clouds: broken clouds at 1600 feet AGL
broken clouds at 2000 feet AGL
Present Weather: automated observation with no human augmentation;
there may or may not be significant weather present at this time
KGNV 300739Z AUTO 11006KT 10SM BKN016 BKN020 22/20 A3011 RMK AO2 T02220200

Conditions at: KGNV observed 30 April 2017  06:53 UTC
Temperature: 22.8°C (73°F)
Dewpoint: 20.6°C (69°F) [RH = 87%]
Pressure (altimeter): 30.11 inches Hg (1019.7 mb)
[Sea-level pressure: 1019.2 mb]
Winds: from the SE (130 degrees) at 7 MPH (6 knots; 3.1 m/s)
Visibility: 10 or more miles (16+ km)
Ceiling: at least 12,000 feet AGL
Clouds: few clouds at 1400 feet AGL
Present Weather: automated observation with no human augmentation;
there may or may not be significant weather present at this time
KGNV 300653Z AUTO 13006KT 10SM FEW014 23/21 A3011 RMK AO2 SLP192 T02280206

Conditions at: KGNV observed 30 April 2017  05:53 UTC
Temperature: 22.8°C (73°F)
Dewpoint: 20.0°C (68°F) [RH = 84%]
Pressure (altimeter): 30.12 inches Hg (1020.1 mb)
[Sea-level pressure: 1019.5 mb]
Winds: from the SE (130 degrees) at 9 MPH (8 knots; 4.2 m/s)
Visibility: 10 or more miles (16+ km)
Ceiling: at least 12,000 feet AGL
Clouds: few clouds at 1500 feet AGL
Present Weather: automated observation with no human augmentation;
there may or may not be significant weather present at this time
KGNV 300553Z AUTO 13008KT 10SM FEW015 23/20 A3012 RMK AO2 SLP195 T02280200 10283 20228 56003

Conditions at: KGNV observed 30 April 2017  04:53 UTC
Temperature: 23.3°C (74°F)
Dewpoint: 20.0°C (68°F) [RH = 82%]
Pressure (altimeter): 30.12 inches Hg (1020.1 mb)
[Sea-level pressure: 1019.6 mb]
Winds: from the SE (130 degrees) at 13 MPH (11 knots; 5.7 m/s)
Visibility: 10 or more miles (16+ km)
Ceiling: at least 12,000 feet AGL
Clouds: sky clear below 12,000 feet AGL
Present Weather: automated observation with no human augmentation;
there may or may not be significant weather present at this time
KGNV 300453Z AUTO 13011KT 10SM CLR 23/20 A3012 RMK AO2 SLP196 T02330200 403500228

Conditions at: KGNV observed 30 April 2017  03:53 UTC
Temperature: 23.3°C (74°F)
Dewpoint: 20.0°C (68°F) [RH = 82%]
Pressure (altimeter): 30.12 inches Hg (1020.1 mb)
[Sea-level pressure: 1019.7 mb]
Winds: from the SE (130 degrees) at 10 MPH (9 knots; 4.7 m/s)
Visibility: 10 or more miles (16+ km)
Ceiling: at least 12,000 feet AGL
Clouds: sky clear below 12,000 feet AGL
Present Weather: automated observation with no human augmentation;
there may or may not be significant weather present at this time
KGNV 300353Z AUTO 13009KT 10SM CLR 23/20 A3012 RMK AO2 SLP197 T02330200

Conditions at: KGNV observed 30 April 2017  02:53 UTC
Temperature: 23.9°C (75°F)
Dewpoint: 20.0°C (68°F) [RH = 79%]
Pressure (altimeter): 30.13 inches Hg (1020.4 mb)
[Sea-level pressure: 1019.8 mb]
Winds: from the ESE (120 degrees) at 13 MPH (11 knots; 5.7 m/s)
Visibility: 10 or more miles (16+ km)
Ceiling: at least 12,000 feet AGL
Clouds: sky clear below 12,000 feet AGL
Present Weather: automated observation with no human augmentation;
there may or may not be significant weather present at this time
KGNV 300253Z AUTO 12011KT 10SM CLR 24/20 A3013 RMK AO2 SLP198 T02390200 53015

Conditions at: KGNV observed 30 April 2017  01:53 UTC
Temperature: 24.4°C (76°F)
Dewpoint: 18.9°C (66°F) [RH = 71%]
Pressure (altimeter): 30.11 inches Hg (1019.7 mb)
[Sea-level pressure: 1019.4 mb]
Winds: from the E (100 degrees) at 9 MPH (8 knots; 4.2 m/s)
Visibility: 10 or more miles (16+ km)
Ceiling: at least 12,000 feet AGL
Clouds: sky clear below 12,000 feet AGL
Present Weather: automated observation with no human augmentation;
there may or may not be significant weather present at this time
KGNV 300153Z AUTO 10008KT 10SM CLR 24/19 A3011 RMK AO2 SLP194 T02440189

Conditions at: KGNV observed 30 April 2017  00:53 UTC
Temperature: 26.1°C (79°F)
Dewpoint: 17.8°C (64°F) [RH = 60%]
Pressure (altimeter): 30.09 inches Hg (1019.0 mb)
[Sea-level pressure: 1018.7 mb]
Winds: from the E (100 degrees) at 12 MPH (10 knots; 5.2 m/s)
Visibility: 10 or more miles (16+ km)
Ceiling: at least 12,000 feet AGL
Clouds: sky clear below 12,000 feet AGL
Present Weather: no significant weather observed at this time
KGNV 300053Z 10010KT 10SM CLR 26/18 A3009 RMK AO2 SLP187 T02610178

Conditions at: KGNV observed 29 April 2017  23:53 UTC
Temperature: 28.3°C (83°F)
Dewpoint: 18.3°C (65°F) [RH = 55%]
Pressure (altimeter): 30.08 inches Hg (1018.7 mb)
[Sea-level pressure: 1018.3 mb]
Winds: from the E (90 degrees) at 14 MPH (12 knots; 6.2 m/s)
Visibility: 10 or more miles (16+ km)
Ceiling: at least 12,000 feet AGL
Clouds: sky clear below 12,000 feet AGL
Present Weather: no significant weather observed at this time
KGNV 292353Z 09012KT 10SM CLR 28/18 A3008 RMK AO2 SLP183 60000 T02830183 10350 20283 55000

Conditions at: KGNV observed 29 April 2017  22:53 UTC
Temperature: 30.6°C (87°F)
Dewpoint: 16.7°C (62°F) [RH = 43%]
Pressure (altimeter): 30.07 inches Hg (1018.4 mb)
[Sea-level pressure: 1018.0 mb]
Winds: from the E (100 degrees) at 14 MPH (12 knots; 6.2 m/s)
Visibility: 10 or more miles (16+ km)
Ceiling: at least 12,000 feet AGL
Clouds: sky clear below 12,000 feet AGL
Present Weather: no significant weather observed at this time
KGNV 292253Z 10012KT 10SM CLR 31/17 A3007 RMK AO2 SLP180 T03060167

Conditions at: KGNV observed 29 April 2017  21:53 UTC
Temperature: 31.7°C (89°F)
Dewpoint: 16.1°C (61°F) [RH = 39%]
Pressure (altimeter): 30.07 inches Hg (1018.4 mb)
[Sea-level pressure: 1018.0 mb]
Winds: from the ESE (120 degrees) at 12 MPH (10 knots; 5.2 m/s)
Visibility: 10 or more miles (16+ km)
Ceiling: 9500 feet AGL
Clouds: scattered clouds at 7000 feet AGL
broken clouds at 9500 feet AGL
Present Weather: no significant weather observed at this time
KGNV 292153Z 12010KT 10SM SCT070 BKN095 32/16 A3007 RMK AO2 SLP180 T03170161

Conditions at: KGNV observed 29 April 2017  20:53 UTC
Temperature: 31.7°C (89°F)
Dewpoint: 16.7°C (62°F) [RH = 41%]
Pressure (altimeter): 30.08 inches Hg (1018.7 mb)
[Sea-level pressure: 1018.3 mb]
Winds: from the ESE (120 degrees) at 12 MPH (10 knots; 5.2 m/s)
Visibility: 10 or more miles (16+ km)
Ceiling: 9000 feet AGL
Clouds: scattered clouds at 6500 feet AGL
broken clouds at 9000 feet AGL
Present Weather: no significant weather observed at this time
KGNV 292053Z 12010KT 10SM SCT065 BKN090 32/17 A3008 RMK AO2 RAE1954 SLP183 P0000 60000 T03170167 56017

Conditions at: KGNV observed 29 April 2017  19:53 UTC
Temperature: 33.3°C (92°F)
Dewpoint: 17.8°C (64°F) [RH = 40%]
Pressure (altimeter): 30.09 inches Hg (1019.0 mb)
[Sea-level pressure: 1018.6 mb]
Winds: from the E (100 degrees) at 10 MPH (9 knots; 4.7 m/s)
Visibility: 10 or more miles (16+ km)
Ceiling: at least 12,000 feet AGL
Clouds: few clouds at 8000 feet AGL
Present Weather: -RA  (light rain)
KGNV 291953Z 10009KT 10SM -RA FEW080 33/18 A3009 RMK AO2 RAB41 SLP186 P0000 T03330178

Conditions at: KGNV observed 29 April 2017  18:53 UTC
Temperature: 33.9°C (93°F)
Dewpoint: 16.1°C (61°F) [RH = 35%]
Pressure (altimeter): 30.11 inches Hg (1019.7 mb)
[Sea-level pressure: 1019.2 mb]
Winds: from the SE (140 degrees) at 14 MPH (12 knots; 6.2 m/s)
gusting to 22 MPH (19 knots; 9.9 m/s)
Visibility: 10 or more miles (16+ km)
Ceiling: at least 12,000 feet AGL
Clouds: scattered clouds at 3000 feet AGL
Present Weather: no significant weather observed at this time
KGNV 291853Z 14012G19KT 10SM SCT030 34/16 A3011 RMK AO2 SLP192 T03390161

Conditions at: KGNV observed 29 April 2017  17:53 UTC
Temperature: 32.2°C (90°F)
Dewpoint: 17.2°C (63°F) [RH = 41%]
Pressure (altimeter): 30.13 inches Hg (1020.4 mb)
[Sea-level pressure: 1019.9 mb]
Winds: from the SE (140 degrees) at 15 MPH (13 knots; 6.8 m/s)
gusting to 18 MPH (16 knots; 8.3 m/s)
Visibility: 10 or more miles (16+ km)
Ceiling: at least 12,000 feet AGL
Clouds: sky clear below 12,000 feet AGL
Present Weather: no significant weather observed at this time
KGNV 291753Z 14013G16KT 10SM CLR 32/17 A3013 RMK AO2 SLP199 T03220172 10322 20250 58014

Conditions at: KGNV observed 29 April 2017  16:53 UTC
Temperature: 31.1°C (88°F)
Dewpoint: 18.9°C (66°F) [RH = 48%]
Pressure (altimeter): 30.15 inches Hg (1021.1 mb)
[Sea-level pressure: 1020.6 mb]
Winds: from the SE (140 degrees) at 9 MPH (8 knots; 4.2 m/s)
gusting to 20 MPH (17 knots; 8.8 m/s)
Visibility: 10 or more miles (16+ km)
Ceiling: at least 12,000 feet AGL
Clouds: scattered clouds at 3000 feet AGL
Present Weather: no significant weather observed at this time
KGNV 291653Z 14008G17KT 100V180 10SM SCT030 31/19 A3015 RMK AO2 SLP206 T03110189

Conditions at: KGNV observed 29 April 2017  15:53 UTC
Temperature: 29.4°C (85°F)
Dewpoint: 20.0°C (68°F) [RH = 57%]
Pressure (altimeter): 30.17 inches Hg (1021.8 mb)
[Sea-level pressure: 1021.3 mb]
Winds: from the SE (140 degrees) at 14 MPH (12 knots; 6.2 m/s)
gusting to 22 MPH (19 knots; 9.9 m/s)
Visibility: 10 or more miles (16+ km)
Ceiling: at least 12,000 feet AGL
Clouds: few clouds at 3000 feet AGL
Present Weather: no significant weather observed at this time
KGNV 291553Z 14012G19KT 10SM FEW030 29/20 A3017 RMK AO2 SLP213 T02940200

Conditions at: KGNV observed 29 April 2017  14:53 UTC
Temperature: 27.2°C (81°F)
Dewpoint: 20.6°C (69°F) [RH = 67%]
Pressure (altimeter): 30.17 inches Hg (1021.8 mb)
[Sea-level pressure: 1021.3 mb]
Winds: from the SE (130 degrees) at 13 MPH (11 knots; 5.7 m/s)
Visibility: 10 or more miles (16+ km)
Ceiling: 3100 feet AGL
Clouds: few clouds at 2500 feet AGL
broken clouds at 3100 feet AGL
Present Weather: no significant weather observed at this time
KGNV 291453Z 13011KT 10SM FEW025 BKN031 27/21 A3017 RMK AO2 SLP213 T02720206 53007

Conditions at: KGNV observed 29 April 2017  14:41 UTC
Temperature: 27.8°C (82°F)
Dewpoint: 21.1°C (70°F) [RH = 67%]
Pressure (altimeter): 30.17 inches Hg (1021.8 mb)
Winds: from the ESE (120 degrees) at 13 MPH (11 knots; 5.7 m/s)
Visibility: 10 or more miles (16+ km)
Ceiling: 3100 feet AGL
Clouds: scattered clouds at 2500 feet AGL
broken clouds at 3100 feet AGL
Present Weather: no significant weather observed at this time
KGNV 291441Z 12011KT 10SM SCT025 BKN031 28/21 A3017 RMK AO2 T02780211

Conditions at: KGNV observed 29 April 2017  13:53 UTC
Temperature: 26.1°C (79°F)
Dewpoint: 21.1°C (70°F) [RH = 74%]
Pressure (altimeter): 30.16 inches Hg (1021.4 mb)
[Sea-level pressure: 1021.0 mb]
Winds: from the ESE (120 degrees) at 13 MPH (11 knots; 5.7 m/s)
Visibility: 10 or more miles (16+ km)
Ceiling: 1800 feet AGL
Clouds: broken clouds at 1800 feet AGL
overcast cloud deck at 2700 feet AGL
Present Weather: no significant weather observed at this time
KGNV 291353Z 12011KT 10SM BKN018 OVC027 26/21 A3016 RMK AO2 SLP210 T02610211

Conditions at: KGNV observed 29 April 2017  13:42 UTC
Temperature: 26.7°C (80°F)
Dewpoint: 21.1°C (70°F) [RH = 71%]
Pressure (altimeter): 30.16 inches Hg (1021.4 mb)
Winds: from the ESE (120 degrees) at 14 MPH (12 knots; 6.2 m/s)
gusting to 20 MPH (17 knots; 8.8 m/s)
Visibility: 10 or more miles (16+ km)
Ceiling: 1800 feet AGL
Clouds: broken clouds at 1800 feet AGL
Present Weather: no significant weather observed at this time
KGNV 291342Z 12012G17KT 10SM BKN018 27/21 A3016 RMK AO2 T02670211

Conditions at: KGNV observed 29 April 2017  13:25 UTC
Temperature: 26.1°C (79°F)
Dewpoint: 21.1°C (70°F) [RH = 74%]
Pressure (altimeter): 30.15 inches Hg (1021.1 mb)
Winds: from the SE (140 degrees) at 10 MPH (9 knots; 4.7 m/s)
gusting to 21 MPH (18 knots; 9.4 m/s)
Visibility: 10 or more miles (16+ km)
Ceiling: at least 12,000 feet AGL
Clouds: scattered clouds at 1600 feet AGL
Present Weather: no significant weather observed at this time
KGNV 291325Z 14009G18KT 10SM SCT016 26/21 A3015 RMK AO2 T02610211

Conditions at: KGNV observed 29 April 2017  12:53 UTC
Temperature: 25.6°C (78°F)
Dewpoint: 21.7°C (71°F) [RH = 79%]
Pressure (altimeter): 30.15 inches Hg (1021.1 mb)
[Sea-level pressure: 1020.6 mb]
Winds: from the SSE (150 degrees) at 13 MPH (11 knots; 5.7 m/s)
Visibility: 10 or more miles (16+ km)
Ceiling: 1600 feet AGL
Clouds: overcast cloud deck at 1600 feet AGL
Present Weather: no significant weather observed at this time
KGNV 291253Z 15011KT 10SM OVC016 26/22 A3015 RMK AO2 SLP206 T02560217

Conditions at: KGNV observed 29 April 2017  11:55 UTC
Temperature: 23.9°C (75°F)
Dewpoint: 21.7°C (71°F) [RH = 88%]
Pressure (altimeter): 30.15 inches Hg (1021.1 mb)
Winds: from the SE (140 degrees) at 8 MPH (7 knots; 3.6 m/s)
Visibility: 10 or more miles (16+ km)
Ceiling: 1200 feet AGL
Clouds: broken clouds at 1200 feet AGL
broken clouds at 1600 feet AGL
Present Weather: no significant weather observed at this time
KGNV 291155Z 14007KT 10SM BKN012 BKN016 24/22 A3015 RMK AO2 T02390217

Conditions at: KGNV observed 29 April 2017  11:48 UTC
Temperature: 23.3°C (74°F)
Dewpoint: 21.7°C (71°F) [RH = 91%]
Pressure (altimeter): 30.15 inches Hg (1021.1 mb)
[Sea-level pressure: 1020.5 mb]
Winds: from the SE (140 degrees) at 9 MPH (8 knots; 4.2 m/s)
Visibility: 10 or more miles (16+ km)
Ceiling: at least 12,000 feet AGL
Clouds: scattered clouds at 1000 feet AGL
Present Weather: no significant weather observed at this time
KGNV 291148Z 14008KT 10SM SCT010 23/22 A3015 RMK AO2 SLP205 T02330217 10239 20228 53012

Conditions at: KGNV observed 29 April 2017  11:47 UTC
Temperature: 23.0°C (73°F)
Dewpoint: 22.0°C (72°F) [RH = 94%]
Pressure (altimeter): 30.15 inches Hg (1021.1 mb)
Winds: from the SE (140 degrees) at 9 MPH (8 knots; 4.2 m/s)
Visibility: 10 or more miles (16+ km)
Ceiling: at least 12,000 feet AGL
Clouds: scattered clouds at 1000 feet AGL
Present Weather: no significant weather observed at this time
KGNV 291147Z 14008KT 10SM SCT010 23/22 A3015 RMK AO2

Conditions at: KGNV observed 29 April 2017  11:38 UTC
Temperature: 23.3°C (74°F)
Dewpoint: 21.7°C (71°F) [RH = 91%]
Pressure (altimeter): 30.14 inches Hg (1020.7 mb)
Winds: from the SE (140 degrees) at 8 MPH (7 knots; 3.6 m/s)
Visibility: 10 or more miles (16+ km)
Ceiling: 1100 feet AGL
Clouds: broken clouds at 1100 feet AGL
broken clouds at 2100 feet AGL
Present Weather: no significant weather observed at this time
KGNV 291138Z 14007KT 10SM BKN011 BKN021 23/22 A3014 RMK AO2 T02330217

Conditions at: KGNV observed 29 April 2017  11:28 UTC
Temperature: 23.3°C (74°F)
Dewpoint: 21.7°C (71°F) [RH = 91%]
Pressure (altimeter): 30.14 inches Hg (1020.7 mb)
Winds: from the SE (140 degrees) at 8 MPH (7 knots; 3.6 m/s)
Visibility: 10 or more miles (16+ km)
Ceiling: 2200 feet AGL
Clouds: scattered clouds at 1100 feet AGL
broken clouds at 2200 feet AGL
Present Weather: no significant weather observed at this time
KGNV 291128Z 14007KT 10SM SCT011 BKN022 23/22 A3014 RMK AO2 T02330217

Conditions at: KGNV observed 29 April 2017  11:11 UTC
Temperature: 23.3°C (74°F)
Dewpoint: 21.7°C (71°F) [RH = 91%]
Pressure (altimeter): 30.13 inches Hg (1020.4 mb)
Winds: from the SE (130 degrees) at 7 MPH (6 knots; 3.1 m/s)
Visibility: 10 or more miles (16+ km)
Ceiling: at least 12,000 feet AGL
Clouds: few clouds at 1100 feet AGL
scattered clouds at 2400 feet AGL
Present Weather: no significant weather observed at this time
KGNV 291111Z 13006KT 10SM FEW011 SCT024 23/22 A3013 RMK AO2 T02330217

Conditions at: KGNV observed 29 April 2017  10:53 UTC
Temperature: 23.3°C (74°F)
Dewpoint: 21.1°C (70°F) [RH = 87%]
Pressure (altimeter): 30.13 inches Hg (1020.4 mb)
[Sea-level pressure: 1019.7 mb]
Winds: from the SE (130 degrees) at 8 MPH (7 knots; 3.6 m/s)
Visibility: 10 or more miles (16+ km)
Ceiling: 2500 feet AGL
Clouds: scattered clouds at 1900 feet AGL
broken clouds at 2500 feet AGL
Present Weather: no significant weather observed at this time
KGNV 291053Z 13007KT 10SM SCT019 BKN025 23/21 A3013 RMK AO2 SLP197 T02330211

Conditions at: KGNV observed 29 April 2017  09:53 UTC
Temperature: 23.3°C (74°F)
Dewpoint: 21.1°C (70°F) [RH = 87%]
Pressure (altimeter): 30.12 inches Hg (1020.1 mb)
[Sea-level pressure: 1019.5 mb]
Winds: from the SSE (160 degrees) at 7 MPH (6 knots; 3.1 m/s)
Visibility: 10 or more miles (16+ km)
Ceiling: 2200 feet AGL
Clouds: few clouds at 1500 feet AGL
overcast cloud deck at 2200 feet AGL
Present Weather: automated observation with no human augmentation;
there may or may not be significant weather present at this time
KGNV 290953Z AUTO 16006KT 10SM FEW015 OVC022 23/21 A3012 RMK AO2 SLP195 T02330211

Conditions at: KGNV observed 29 April 2017  08:53 UTC
Temperature: 23.3°C (74°F)
Dewpoint: 21.1°C (70°F) [RH = 87%]
Pressure (altimeter): 30.11 inches Hg (1019.7 mb)
[Sea-level pressure: 1019.2 mb]
Winds: from the SE (140 degrees) at 7 MPH (6 knots; 3.1 m/s)
Visibility: 10 or more miles (16+ km)
Ceiling: 2300 feet AGL
Clouds: overcast cloud deck at 2300 feet AGL
Present Weather: automated observation with no human augmentation;
there may or may not be significant weather present at this time
KGNV 290853Z AUTO 14006KT 10SM OVC023 23/21 A3011 RMK AO2 SLP192 T02330211 56003

Conditions at: KGNV observed 29 April 2017  08:31 UTC
Temperature: 22.8°C (73°F)
Dewpoint: 21.1°C (70°F) [RH = 90%]
Pressure (altimeter): 30.12 inches Hg (1020.1 mb)
Winds: from the SE (140 degrees) at 6 MPH (5 knots; 2.6 m/s)
Visibility: 10 or more miles (16+ km)
Ceiling: 2300 feet AGL
Clouds: broken clouds at 2300 feet AGL
broken clouds at 6500 feet AGL
Present Weather: automated observation with no human augmentation;
there may or may not be significant weather present at this time
KGNV 290831Z AUTO 14005KT 10SM BKN023 BKN065 23/21 A3012 RMK AO2 T02280211

Conditions at: KGNV observed 29 April 2017  07:53 UTC
Temperature: 22.8°C (73°F)
Dewpoint: 20.6°C (69°F) [RH = 87%]
Pressure (altimeter): 30.11 inches Hg (1019.7 mb)
[Sea-level pressure: 1019.3 mb]
Winds: from the SE (140 degrees) at 8 MPH (7 knots; 3.6 m/s)
Visibility: 10 or more miles (16+ km)
Ceiling: at least 12,000 feet AGL
Clouds: sky clear below 12,000 feet AGL
Present Weather: automated observation with no human augmentation;
there may or may not be significant weather present at this time
KGNV 290753Z AUTO 14007KT 10SM CLR 23/21 A3011 RMK AO2 SLP193 T02280206

Conditions at: KGNV observed 29 April 2017  06:53 UTC
Temperature: 23.3°C (74°F)
Dewpoint: 20.0°C (68°F) [RH = 82%]
Pressure (altimeter): 30.12 inches Hg (1020.1 mb)
[Sea-level pressure: 1019.4 mb]
Winds: from the SE (140 degrees) at 9 MPH (8 knots; 4.2 m/s)
Visibility: 10 or more miles (16+ km)
Ceiling: at least 12,000 feet AGL
Clouds: few clouds at 6500 feet AGL
Present Weather: automated observation with no human augmentation;
there may or may not be significant weather present at this time
KGNV 290653Z AUTO 14008KT 10SM FEW065 23/20 A3012 RMK AO2 SLP194 T02330200

Conditions at: KGNV observed 29 April 2017  05:53 UTC
Temperature: 23.9°C (75°F)
Dewpoint: 19.4°C (67°F) [RH = 76%]
Pressure (altimeter): 30.12 inches Hg (1020.1 mb)
[Sea-level pressure: 1019.5 mb]
Winds: from the SE (140 degrees) at 8 MPH (7 knots; 3.6 m/s)
Visibility: 10 or more miles (16+ km)
Ceiling: at least 12,000 feet AGL
Clouds: sky clear below 12,000 feet AGL
Present Weather: automated observation with no human augmentation;
there may or may not be significant weather present at this time
KGNV 290553Z AUTO 14007KT 10SM CLR 24/19 A3012 RMK AO2 SLP195 T02390194 10306 20239 51007

Conditions at: KGNV observed 29 April 2017  04:53 UTC
Temperature: 25.0°C (77°F)
Dewpoint: 18.9°C (66°F) [RH = 69%]
Pressure (altimeter): 30.12 inches Hg (1020.1 mb)
[Sea-level pressure: 1019.5 mb]
Winds: from the SE (140 degrees) at 8 MPH (7 knots; 3.6 m/s)
Visibility: 10 or more miles (16+ km)
Ceiling: at least 12,000 feet AGL
Clouds: scattered clouds at 7000 feet AGL
Present Weather: automated observation with no human augmentation;
there may or may not be significant weather present at this time
KGNV 290453Z AUTO 14007KT 10SM SCT070 25/19 A3012 RMK AO2 SLP195 T02500189 403500167

Conditions at: KGNV observed 29 April 2017  03:53 UTC
Temperature: 26.1°C (79°F)
Dewpoint: 18.3°C (65°F) [RH = 62%]
Pressure (altimeter): 30.11 inches Hg (1019.7 mb)
[Sea-level pressure: 1019.1 mb]
Winds: from the SE (140 degrees) at 9 MPH (8 knots; 4.2 m/s)
Visibility: 10 or more miles (16+ km)
Ceiling: at least 12,000 feet AGL
Clouds: sky clear below 12,000 feet AGL
Present Weather: automated observation with no human augmentation;
there may or may not be significant weather present at this time
KGNV 290353Z AUTO 14008KT 10SM CLR 26/18 A3011 RMK AO2 SLP191 T02610183

Conditions at: KGNV observed 29 April 2017  02:53 UTC
Temperature: 26.7°C (80°F)
Dewpoint: 18.9°C (66°F) [RH = 62%]
Pressure (altimeter): 30.10 inches Hg (1019.4 mb)
[Sea-level pressure: 1018.9 mb]
Winds: from the SE (130 degrees) at 12 MPH (10 knots; 5.2 m/s)
Visibility: 10 or more miles (16+ km)
Ceiling: at least 12,000 feet AGL
Clouds: sky clear below 12,000 feet AGL
Present Weather: automated observation with no human augmentation;
there may or may not be significant weather present at this time
KGNV 290253Z AUTO 13010KT 10SM CLR 27/19 A3010 RMK AO2 SLP189 T02670189 51022

Conditions at: KGNV observed 29 April 2017  01:53 UTC
Temperature: 26.7°C (80°F)
Dewpoint: 19.4°C (67°F) [RH = 64%]
Pressure (altimeter): 30.08 inches Hg (1018.7 mb)
[Sea-level pressure: 1018.3 mb]
Winds: from the ESE (110 degrees) at 9 MPH (8 knots; 4.2 m/s)
Visibility: 10 or more miles (16+ km)
Ceiling: at least 12,000 feet AGL
Clouds: sky clear below 12,000 feet AGL
Present Weather: no significant weather observed at this time
KGNV 290153Z 11008KT 10SM CLR 27/19 A3008 RMK AO2 SLP183 T02670194

Conditions at: KGNV observed 29 April 2017  00:53 UTC
Temperature: 28.9°C (84°F)
Dewpoint: 19.4°C (67°F) [RH = 57%]
Pressure (altimeter): 30.05 inches Hg (1017.7 mb)
[Sea-level pressure: 1017.4 mb]
Winds: from the E (100 degrees) at 9 MPH (8 knots; 4.2 m/s)
Visibility: 10 or more miles (16+ km)
Ceiling: at least 12,000 feet AGL
Clouds: sky clear below 12,000 feet AGL
Present Weather: no significant weather observed at this time
KGNV 290053Z 10008KT 10SM CLR 29/19 A3005 RMK AO2 SLP174 T02890194

Conditions at: KGNV observed 28 April 2017  23:53 UTC
Temperature: 30.6°C (87°F)
Dewpoint: 20.6°C (69°F) [RH = 55%]
Pressure (altimeter): 30.03 inches Hg (1017.0 mb)
[Sea-level pressure: 1016.7 mb]
Winds: from the ESE (110 degrees) at 12 MPH (10 knots; 5.2 m/s)
Visibility: 10 or more miles (16+ km)
Ceiling: 7000 feet AGL
Clouds: broken clouds at 7000 feet AGL
Present Weather: no significant weather observed at this time
KGNV 282353Z 11010KT 10SM BKN070 31/21 A3003 RMK AO2 SLP167 T03060206 10350 20306 53006

Conditions at: KGNV observed 28 April 2017  22:53 UTC
Temperature: 33.3°C (92°F)
Dewpoint: 17.8°C (64°F) [RH = 40%]
Pressure (altimeter): 30.01 inches Hg (1016.3 mb)
[Sea-level pressure: 1016.1 mb]
Winds: from the SE (140 degrees) at 9 MPH (8 knots; 4.2 m/s)
Visibility: 10 or more miles (16+ km)
Ceiling: at least 12,000 feet AGL
Clouds: sky clear below 12,000 feet AGL
Present Weather: no significant weather observed at this time
KGNV 282253Z 14008KT 10SM CLR 33/18 A3001 RMK AO2 SLP161 T03330178

Conditions at: KGNV observed 28 April 2017  21:53 UTC
Temperature: 33.3°C (92°F)
Dewpoint: 17.2°C (63°F) [RH = 38%]
Pressure (altimeter): 30.02 inches Hg (1016.7 mb)
[Sea-level pressure: 1016.1 mb]
Winds: from the SE (130 degrees) at 7 MPH (6 knots; 3.1 m/s)
Visibility: 10 or more miles (16+ km)
Ceiling: at least 12,000 feet AGL
Clouds: scattered clouds at 7000 feet AGL
Present Weather: no significant weather observed at this time
KGNV 282153Z 13006KT 10SM SCT070 33/17 A3002 RMK AO2 SLP161 T03330172

Conditions at: KGNV observed 28 April 2017  20:53 UTC
Temperature: 35.0°C (95°F)
Dewpoint: 17.2°C (63°F) [RH = 35%]
Pressure (altimeter): 30.01 inches Hg (1016.3 mb)
[Sea-level pressure: 1016.1 mb]
Winds: from the SSE (160 degrees) at 14 MPH (12 knots; 6.2 m/s)
Visibility: 10 or more miles (16+ km)
Ceiling: at least 12,000 feet AGL
Clouds: few clouds at 7000 feet AGL
Present Weather: no significant weather observed at this time
KGNV 282053Z 16012KT 10SM FEW070 35/17 A3001 RMK AO2 SLP161 T03500172 56016

Conditions at: KGNV observed 28 April 2017  19:53 UTC
Temperature: 33.9°C (93°F)
Dewpoint: 18.3°C (65°F) [RH = 40%]
Pressure (altimeter): 30.02 inches Hg (1016.7 mb)
[Sea-level pressure: 1016.4 mb]
Winds: variable direction winds at 6 MPH (5 knots; 2.6 m/s)
Visibility: 10 or more miles (16+ km)
Ceiling: at least 12,000 feet AGL
Clouds: sky clear below 12,000 feet AGL
Present Weather: no significant weather observed at this time
KGNV 281953Z VRB05KT 10SM CLR 34/18 A3002 RMK AO2 SLP164 T03390183

Conditions at: KGNV observed 28 April 2017  18:53 UTC
Temperature: 33.9°C (93°F)
Dewpoint: 17.8°C (64°F) [RH = 39%]
Pressure (altimeter): 30.04 inches Hg (1017.4 mb)
[Sea-level pressure: 1017.0 mb]
Winds: from the SSE (150 degrees) at 14 MPH (12 knots; 6.2 m/s)
Visibility: 10 or more miles (16+ km)
Ceiling: at least 12,000 feet AGL
Clouds: sky clear below 12,000 feet AGL
Present Weather: no significant weather observed at this time
KGNV 281853Z 15012KT 10SM CLR 34/18 A3004 RMK AO2 SLP170 T03390178

Conditions at: KGNV observed 28 April 2017  17:53 UTC
Temperature: 32.8°C (91°F)
Dewpoint: 19.4°C (67°F) [RH = 45%]
Pressure (altimeter): 30.06 inches Hg (1018.0 mb)
[Sea-level pressure: 1017.7 mb]
Winds: from the SSE (150 degrees) at 9 MPH (8 knots; 4.2 m/s)
gusting to 17 MPH (15 knots; 7.8 m/s)
Visibility: 10 or more miles (16+ km)
Ceiling: at least 12,000 feet AGL
Clouds: scattered clouds at 5500 feet AGL
Present Weather: no significant weather observed at this time
KGNV 281753Z 15008G15KT 10SM SCT055 33/19 A3006 RMK AO2 SLP177 T03280194 10328 20200 58007

Conditions at: KGNV observed 28 April 2017  16:53 UTC
Temperature: 31.1°C (88°F)
Dewpoint: 20.0°C (68°F) [RH = 52%]
Pressure (altimeter): 30.07 inches Hg (1018.4 mb)
[Sea-level pressure: 1018.0 mb]
Winds: from the S (180 degrees) at 10 MPH (9 knots; 4.7 m/s)
Visibility: 10 or more miles (16+ km)
Ceiling: at least 12,000 feet AGL
Clouds: scattered clouds at 3700 feet AGL
Present Weather: no significant weather observed at this time
KGNV 281653Z 18009KT 10SM SCT037 31/20 A3007 RMK AO2 SLP180 T03110200

Conditions at: KGNV observed 28 April 2017  15:53 UTC
Temperature: 30.6°C (87°F)
Dewpoint: 20.6°C (69°F) [RH = 55%]
Pressure (altimeter): 30.09 inches Hg (1019.0 mb)
[Sea-level pressure: 1018.5 mb]
Winds: from the S (190 degrees) at 8 MPH (7 knots; 3.6 m/s)
Visibility: 10 or more miles (16+ km)
Ceiling: 3700 feet AGL
Clouds: broken clouds at 3700 feet AGL
Present Weather: no significant weather observed at this time
KGNV 281553Z 19007KT 160V230 10SM BKN037 31/21 A3009 RMK AO2 SLP185 T03060206